Roches Point, Ireland

4:47 AM GMT on March 24, 2017 (GMT +0000)
Fountainstown Back Beach | | Change Station

Elev 30 ft 51.77 °N, 8.32 °W | Updated 20 seconds ago

Clear
Clear
41.0 °F
Feels Like 38 °F
N
4.0
Wind Variable Wind from North
Gusts 4.9 mph

Today
High -- | Low -- °F
--% Chance of Precip.
Yesterday
High -- | Low -- °F
Precip. -- in
Pressure 30.30 in
Visibility 6.2 miles
Clouds Few 2500 ft
Windchill 38 °F
Dew Point 37 °F
Humidity 85%
Rainfall 0.00 in
Snow Depth Not available.
6:26 AM 6:53 PM
Waning Crescent, 18% visible
METAR EICK 240430Z 02013KT 9999 FEW025 04/02 Q1026 NOSIG
Pressure 30.30 in
Visibility 6.2 miles
Clouds Few 2500 ft
Windchill 38 °F
Dew Point 37 °F
Humidity 85%
Rainfall 0.00 in
Snow Depth Not available.
6:26 AM 6:53 PM
Waning Crescent, 18% visible
METAR EICK 240430Z 02013KT 9999 FEW025 04/02 Q1026 NOSIG

Get Severe Weather Alerts

Thanks for signing up!

Be on the lookout for a verification email in your inbox.

You'll start receiving the daily forecast at 8 AM.

×

10-Day Weather Forecast

×

Almanac

Astronomy

Mar. 24, 2017 Rise Set
Actual Time
Civil Twilight
Nautical Twilight
Astronomical Twilight
Moon
Length of Visible Light
Length of Day
Tomorrow will be .
, % of the Moon is Illuminated

Today's Extremes

Country Highs Country Lows

Community

WunderPhotos

Upload Photos

1,962,540 photos uploaded!

WunderBlog® & News

Nearby

Air Quality

  Air Quality AQ Index Pollutant
Not available.

Snow Depth

Station Depth Elevation

Earthquake Activity

City Distance Mag. Time & Date
Minimum magnitude displayed is 2.5.

Earthquake Activity

City Distance Mag. Time & Date
Minimum magnitude displayed is 2.5.

Coastal Water Temperatures

Place Temperature

Stations

Nearby Weather Stations

Station Location Temp. Windchill Dew Point Humidity Wind Precip. Elev Updated Type